sensor_id;sensor_type;location;lat;lon;timestamp;P1;durP1;ratioP1;P2;durP2;ratioP2
51475;SDS011;37554;50.362;7.568;2023-02-11T00:01:43;17.48;;;14.05;;
51475;SDS011;37554;50.362;7.568;2023-02-11T00:04:09;18.85;;;14.80;;
51475;SDS011;37554;50.362;7.568;2023-02-11T00:06:35;16.95;;;13.48;;
51475;SDS011;37554;50.362;7.568;2023-02-11T00:09:01;18.33;;;14.32;;
51475;SDS011;37554;50.362;7.568;2023-02-11T00:11:27;18.90;;;14.20;;
51475;SDS011;37554;50.362;7.568;2023-02-11T00:13:54;18.10;;;14.55;;
51475;SDS011;37554;50.362;7.568;2023-02-11T00:16:22;18.08;;;14.15;;
51475;SDS011;37554;50.362;7.568;2023-02-11T00:18:48;18.80;;;13.48;;
51475;SDS011;37554;50.362;7.568;2023-02-11T00:21:18;18.17;;;14.40;;
51475;SDS011;37554;50.362;7.568;2023-02-11T00:23:45;19.95;;;15.68;;
51475;SDS011;37554;50.362;7.568;2023-02-11T00:26:12;18.33;;;14.63;;
51475;SDS011;37554;50.362;7.568;2023-02-11T00:28:39;18.25;;;13.90;;
51475;SDS011;37554;50.362;7.568;2023-02-11T00:31:05;15.68;;;13.80;;
51475;SDS011;37554;50.362;7.568;2023-02-11T00:33:31;17.08;;;13.65;;
51475;SDS011;37554;50.362;7.568;2023-02-11T00:35:56;16.40;;;14.30;;
51475;SDS011;37554;50.362;7.568;2023-02-11T00:38:22;17.73;;;13.77;;
51475;SDS011;37554;50.362;7.568;2023-02-11T00:40:47;17.05;;;13.70;;
51475;SDS011;37554;50.362;7.568;2023-02-11T00:43:13;17.80;;;14.20;;
51475;SDS011;37554;50.362;7.568;2023-02-11T00:45:39;16.65;;;13.40;;
51475;SDS011;37554;50.362;7.568;2023-02-11T00:48:04;18.27;;;13.10;;
51475;SDS011;37554;50.362;7.568;2023-02-11T00:50:30;16.08;;;13.23;;
51475;SDS011;37554;50.362;7.568;2023-02-11T00:52:55;19.73;;;14.02;;
51475;SDS011;37554;50.362;7.568;2023-02-11T00:55:21;17.58;;;14.45;;
51475;SDS011;37554;50.362;7.568;2023-02-11T00:57:47;18.55;;;13.95;;
51475;SDS011;37554;50.362;7.568;2023-02-11T01:00:12;18.30;;;14.30;;
51475;SDS011;37554;50.362;7.568;2023-02-11T01:02:38;17.65;;;14.20;;
51475;SDS011;37554;50.362;7.568;2023-02-11T01:05:04;16.67;;;13.48;;
51475;SDS011;37554;50.362;7.568;2023-02-11T01:07:31;16.92;;;13.60;;
51475;SDS011;37554;50.362;7.568;2023-02-11T01:09:56;16.85;;;13.90;;
51475;SDS011;37554;50.362;7.568;2023-02-11T01:12:22;17.35;;;13.27;;
51475;SDS011;37554;50.362;7.568;2023-02-11T01:14:48;19.20;;;13.95;;
51475;SDS011;37554;50.362;7.568;2023-02-11T01:17:14;17.85;;;14.55;;
51475;SDS011;37554;50.362;7.568;2023-02-11T01:19:39;17.35;;;14.05;;
51475;SDS011;37554;50.362;7.568;2023-02-11T01:22:05;18.05;;;14.98;;
51475;SDS011;37554;50.362;7.568;2023-02-11T01:24:31;17.65;;;15.02;;
51475;SDS011;37554;50.362;7.568;2023-02-11T01:26:57;18.50;;;14.63;;
51475;SDS011;37554;50.362;7.568;2023-02-11T01:29:23;16.38;;;13.30;;
51475;SDS011;37554;50.362;7.568;2023-02-11T01:31:49;20.10;;;15.48;;
51475;SDS011;37554;50.362;7.568;2023-02-11T01:34:14;18.52;;;14.40;;
51475;SDS011;37554;50.362;7.568;2023-02-11T01:36:40;18.98;;;13.90;;
51475;SDS011;37554;50.362;7.568;2023-02-11T01:39:06;19.85;;;14.73;;
51475;SDS011;37554;50.362;7.568;2023-02-11T01:41:32;17.20;;;14.27;;
51475;SDS011;37554;50.362;7.568;2023-02-11T01:44:20;19.35;;;14.80;;
51475;SDS011;37554;50.362;7.568;2023-02-11T01:46:52;18.20;;;14.70;;
51475;SDS011;37554;50.362;7.568;2023-02-11T01:49:29;18.02;;;14.80;;
51475;SDS011;37554;50.362;7.568;2023-02-11T01:52:01;19.75;;;15.05;;
51475;SDS011;37554;50.362;7.568;2023-02-11T01:54:53;19.02;;;15.45;;
51475;SDS011;37554;50.362;7.568;2023-02-11T01:57:43;18.27;;;15.27;;
51475;SDS011;37554;50.362;7.568;2023-02-11T02:00:19;19.67;;;14.90;;
51475;SDS011;37554;50.362;7.568;2023-02-11T02:08:18;19.60;;;15.10;;
51475;SDS011;37554;50.362;7.568;2023-02-11T02:10:46;19.38;;;14.73;;
51475;SDS011;37554;50.362;7.568;2023-02-11T02:13:17;18.60;;;14.15;;
51475;SDS011;37554;50.362;7.568;2023-02-11T02:38:23;16.90;;;14.43;;
51475;SDS011;37554;50.362;7.568;2023-02-11T02:41:09;17.15;;;14.30;;
51475;SDS011;37554;50.362;7.568;2023-02-11T02:43:41;18.17;;;15.27;;
51475;SDS011;37554;50.362;7.568;2023-02-11T02:46:10;17.98;;;14.02;;
51475;SDS011;37554;50.362;7.568;2023-02-11T02:48:41;20.92;;;15.27;;
51475;SDS011;37554;50.362;7.568;2023-02-11T02:54:00;18.15;;;13.90;;
51475;SDS011;37554;50.362;7.568;2023-02-11T03:01:49;18.23;;;15.05;;
51475;SDS011;37554;50.362;7.568;2023-02-11T03:06:56;18.17;;;14.23;;
51475;SDS011;37554;50.362;7.568;2023-02-11T03:09:39;18.02;;;14.52;;
51475;SDS011;37554;50.362;7.568;2023-02-11T03:12:11;18.92;;;14.77;;
51475;SDS011;37554;50.362;7.568;2023-02-11T03:14:38;20.60;;;15.77;;
51475;SDS011;37554;50.362;7.568;2023-02-11T03:17:05;19.00;;;16.00;;
51475;SDS011;37554;50.362;7.568;2023-02-11T03:19:36;18.80;;;14.65;;
51475;SDS011;37554;50.362;7.568;2023-02-11T03:22:06;18.77;;;15.23;;
51475;SDS011;37554;50.362;7.568;2023-02-11T03:24:36;19.30;;;15.65;;
51475;SDS011;37554;50.362;7.568;2023-02-11T03:27:19;20.08;;;15.85;;
51475;SDS011;37554;50.362;7.568;2023-02-11T03:32:40;19.92;;;16.17;;
51475;SDS011;37554;50.362;7.568;2023-02-11T03:35:19;19.52;;;15.38;;
51475;SDS011;37554;50.362;7.568;2023-02-11T03:40:27;18.08;;;15.43;;
51475;SDS011;37554;50.362;7.568;2023-02-11T03:42:57;19.45;;;15.10;;
51475;SDS011;37554;50.362;7.568;2023-02-11T03:45:25;20.20;;;15.45;;
51475;SDS011;37554;50.362;7.568;2023-02-11T03:48:26;20.63;;;16.45;;
51475;SDS011;37554;50.362;7.568;2023-02-11T03:50:49;20.67;;;16.02;;
51475;SDS011;37554;50.362;7.568;2023-02-11T03:53:18;21.98;;;16.55;;
51475;SDS011;37554;50.362;7.568;2023-02-11T03:55:46;20.52;;;16.33;;
51475;SDS011;37554;50.362;7.568;2023-02-11T03:58:14;20.15;;;16.27;;
51475;SDS011;37554;50.362;7.568;2023-02-11T04:00:40;20.33;;;16.10;;
51475;SDS011;37554;50.362;7.568;2023-02-11T04:03:07;20.52;;;16.38;;
51475;SDS011;37554;50.362;7.568;2023-02-11T04:05:34;20.17;;;16.17;;
51475;SDS011;37554;50.362;7.568;2023-02-11T04:08:00;23.02;;;17.30;;
51475;SDS011;37554;50.362;7.568;2023-02-11T04:10:26;20.27;;;16.70;;
51475;SDS011;37554;50.362;7.568;2023-02-11T04:12:51;20.48;;;16.55;;
51475;SDS011;37554;50.362;7.568;2023-02-11T04:15:17;21.30;;;16.42;;
51475;SDS011;37554;50.362;7.568;2023-02-11T04:17:43;19.80;;;16.05;;
51475;SDS011;37554;50.362;7.568;2023-02-11T04:20:09;20.52;;;16.63;;
51475;SDS011;37554;50.362;7.568;2023-02-11T04:22:35;19.63;;;16.80;;
51475;SDS011;37554;50.362;7.568;2023-02-11T04:25:01;19.33;;;15.45;;
51475;SDS011;37554;50.362;7.568;2023-02-11T04:27:27;19.83;;;16.17;;
51475;SDS011;37554;50.362;7.568;2023-02-11T04:29:53;22.35;;;16.98;;
51475;SDS011;37554;50.362;7.568;2023-02-11T04:32:19;19.58;;;16.05;;
51475;SDS011;37554;50.362;7.568;2023-02-11T04:34:45;18.52;;;15.43;;
51475;SDS011;37554;50.362;7.568;2023-02-11T04:37:10;18.20;;;15.57;;
51475;SDS011;37554;50.362;7.568;2023-02-11T04:39:36;21.83;;;15.45;;
51475;SDS011;37554;50.362;7.568;2023-02-11T04:42:02;22.40;;;16.65;;
51475;SDS011;37554;50.362;7.568;2023-02-11T04:44:28;20.10;;;15.25;;
51475;SDS011;37554;50.362;7.568;2023-02-11T04:46:53;20.00;;;15.65;;
51475;SDS011;37554;50.362;7.568;2023-02-11T04:49:19;19.40;;;14.93;;
51475;SDS011;37554;50.362;7.568;2023-02-11T04:51:44;19.80;;;15.73;;
51475;SDS011;37554;50.362;7.568;2023-02-11T04:54:10;21.95;;;17.10;;
51475;SDS011;37554;50.362;7.568;2023-02-11T04:56:36;18.63;;;16.00;;
51475;SDS011;37554;50.362;7.568;2023-02-11T04:59:02;21.60;;;16.35;;
51475;SDS011;37554;50.362;7.568;2023-02-11T05:01:29;18.70;;;15.55;;
51475;SDS011;37554;50.362;7.568;2023-02-11T05:03:55;20.10;;;16.05;;
51475;SDS011;37554;50.362;7.568;2023-02-11T05:06:21;21.10;;;17.05;;
51475;SDS011;37554;50.362;7.568;2023-02-11T05:08:46;21.67;;;16.70;;
51475;SDS011;37554;50.362;7.568;2023-02-11T05:11:17;20.73;;;16.75;;
51475;SDS011;37554;50.362;7.568;2023-02-11T05:13:44;20.67;;;16.35;;
51475;SDS011;37554;50.362;7.568;2023-02-11T05:16:10;21.30;;;16.13;;
51475;SDS011;37554;50.362;7.568;2023-02-11T05:18:37;21.45;;;16.38;;
51475;SDS011;37554;50.362;7.568;2023-02-11T05:21:07;21.90;;;17.10;;
51475;SDS011;37554;50.362;7.568;2023-02-11T05:23:34;23.15;;;17.95;;
51475;SDS011;37554;50.362;7.568;2023-02-11T05:26:00;23.58;;;16.98;;
51475;SDS011;37554;50.362;7.568;2023-02-11T05:28:26;21.50;;;16.65;;
51475;SDS011;37554;50.362;7.568;2023-02-11T05:30:52;21.63;;;17.55;;
51475;SDS011;37554;50.362;7.568;2023-02-11T05:33:17;22.33;;;17.33;;
51475;SDS011;37554;50.362;7.568;2023-02-11T05:35:43;20.13;;;16.67;;
51475;SDS011;37554;50.362;7.568;2023-02-11T05:38:09;22.17;;;16.52;;
51475;SDS011;37554;50.362;7.568;2023-02-11T05:40:34;20.17;;;16.92;;
51475;SDS011;37554;50.362;7.568;2023-02-11T05:43:00;22.77;;;17.00;;
51475;SDS011;37554;50.362;7.568;2023-02-11T05:45:26;21.38;;;16.58;;
51475;SDS011;37554;50.362;7.568;2023-02-11T05:47:51;22.65;;;17.33;;
51475;SDS011;37554;50.362;7.568;2023-02-11T05:50:17;19.33;;;16.73;;
51475;SDS011;37554;50.362;7.568;2023-02-11T05:52:42;20.50;;;16.40;;
51475;SDS011;37554;50.362;7.568;2023-02-11T05:55:08;20.83;;;16.75;;
51475;SDS011;37554;50.362;7.568;2023-02-11T05:57:34;21.48;;;16.52;;
51475;SDS011;37554;50.362;7.568;2023-02-11T06:00:00;21.05;;;17.10;;
51475;SDS011;37554;50.362;7.568;2023-02-11T06:02:26;20.55;;;16.92;;
51475;SDS011;37554;50.362;7.568;2023-02-11T06:04:51;21.65;;;16.90;;
51475;SDS011;37554;50.362;7.568;2023-02-11T06:07:17;22.20;;;17.02;;
51475;SDS011;37554;50.362;7.568;2023-02-11T06:09:43;19.00;;;16.63;;
51475;SDS011;37554;50.362;7.568;2023-02-11T06:12:09;21.80;;;17.30;;
51475;SDS011;37554;50.362;7.568;2023-02-11T06:14:35;19.15;;;16.38;;
51475;SDS011;37554;50.362;7.568;2023-02-11T06:17:01;20.00;;;15.98;;
51475;SDS011;37554;50.362;7.568;2023-02-11T06:19:27;21.10;;;17.05;;
51475;SDS011;37554;50.362;7.568;2023-02-11T06:21:52;21.85;;;16.92;;
51475;SDS011;37554;50.362;7.568;2023-02-11T06:24:20;22.65;;;18.02;;
51475;SDS011;37554;50.362;7.568;2023-02-11T06:26:45;21.33;;;16.38;;
51475;SDS011;37554;50.362;7.568;2023-02-11T06:29:11;22.48;;;17.45;;
51475;SDS011;37554;50.362;7.568;2023-02-11T06:31:37;21.38;;;16.75;;
51475;SDS011;37554;50.362;7.568;2023-02-11T06:34:03;19.42;;;16.80;;
51475;SDS011;37554;50.362;7.568;2023-02-11T06:36:29;19.90;;;16.08;;
51475;SDS011;37554;50.362;7.568;2023-02-11T06:38:55;21.77;;;16.63;;
51475;SDS011;37554;50.362;7.568;2023-02-11T06:41:21;23.27;;;17.10;;
51475;SDS011;37554;50.362;7.568;2023-02-11T06:43:47;20.77;;;16.33;;
51475;SDS011;37554;50.362;7.568;2023-02-11T06:46:13;23.08;;;16.10;;
51475;SDS011;37554;50.362;7.568;2023-02-11T06:48:40;19.38;;;16.25;;
51475;SDS011;37554;50.362;7.568;2023-02-11T06:51:07;21.15;;;17.10;;
51475;SDS011;37554;50.362;7.568;2023-02-11T06:53:35;21.08;;;16.92;;
51475;SDS011;37554;50.362;7.568;2023-02-11T06:56:06;21.55;;;16.65;;
51475;SDS011;37554;50.362;7.568;2023-02-11T06:58:33;20.65;;;16.73;;
51475;SDS011;37554;50.362;7.568;2023-02-11T07:01:02;23.17;;;16.45;;
51475;SDS011;37554;50.362;7.568;2023-02-11T07:03:35;23.33;;;16.67;;
51475;SDS011;37554;50.362;7.568;2023-02-11T07:06:04;21.48;;;16.30;;
51475;SDS011;37554;50.362;7.568;2023-02-11T07:08:32;19.30;;;16.45;;
51475;SDS011;37554;50.362;7.568;2023-02-11T07:10:58;23.83;;;17.40;;
51475;SDS011;37554;50.362;7.568;2023-02-11T07:13:24;20.77;;;16.33;;
51475;SDS011;37554;50.362;7.568;2023-02-11T07:15:50;20.88;;;16.50;;
51475;SDS011;37554;50.362;7.568;2023-02-11T07:18:15;19.85;;;16.30;;
51475;SDS011;37554;50.362;7.568;2023-02-11T07:20:41;21.65;;;16.73;;
51475;SDS011;37554;50.362;7.568;2023-02-11T07:23:07;22.27;;;16.50;;
51475;SDS011;37554;50.362;7.568;2023-02-11T07:25:32;21.75;;;16.23;;
51475;SDS011;37554;50.362;7.568;2023-02-11T07:27:59;20.98;;;16.20;;
51475;SDS011;37554;50.362;7.568;2023-02-11T07:30:24;18.85;;;16.40;;
51475;SDS011;37554;50.362;7.568;2023-02-11T07:32:50;18.52;;;15.80;;
51475;SDS011;37554;50.362;7.568;2023-02-11T07:35:15;21.60;;;15.77;;
51475;SDS011;37554;50.362;7.568;2023-02-11T07:37:41;20.55;;;16.42;;
51475;SDS011;37554;50.362;7.568;2023-02-11T07:40:07;22.55;;;17.25;;
51475;SDS011;37554;50.362;7.568;2023-02-11T07:42:33;21.88;;;16.15;;
51475;SDS011;37554;50.362;7.568;2023-02-11T07:44:59;24.08;;;17.10;;
51475;SDS011;37554;50.362;7.568;2023-02-11T07:47:25;19.92;;;15.82;;
51475;SDS011;37554;50.362;7.568;2023-02-11T07:49:51;18.75;;;15.55;;
51475;SDS011;37554;50.362;7.568;2023-02-11T07:52:16;20.67;;;16.40;;
51475;SDS011;37554;50.362;7.568;2023-02-11T07:54:42;18.77;;;15.73;;
51475;SDS011;37554;50.362;7.568;2023-02-11T07:57:08;24.90;;;19.48;;
51475;SDS011;37554;50.362;7.568;2023-02-11T07:59:34;27.77;;;20.90;;
51475;SDS011;37554;50.362;7.568;2023-02-11T08:01:59;30.25;;;22.95;;
51475;SDS011;37554;50.362;7.568;2023-02-11T08:04:25;29.35;;;22.38;;
51475;SDS011;37554;50.362;7.568;2023-02-11T08:06:51;25.92;;;20.52;;
51475;SDS011;37554;50.362;7.568;2023-02-11T08:09:18;25.48;;;19.63;;
51475;SDS011;37554;50.362;7.568;2023-02-11T08:11:44;23.63;;;17.58;;
51475;SDS011;37554;50.362;7.568;2023-02-11T08:14:10;21.77;;;17.83;;
51475;SDS011;37554;50.362;7.568;2023-02-11T08:16:36;23.45;;;17.67;;
51475;SDS011;37554;50.362;7.568;2023-02-11T08:19:07;20.60;;;16.27;;
51475;SDS011;37554;50.362;7.568;2023-02-11T08:21:38;20.40;;;16.35;;
51475;SDS011;37554;50.362;7.568;2023-02-11T08:24:04;24.20;;;18.88;;
51475;SDS011;37554;50.362;7.568;2023-02-11T08:26:31;19.55;;;15.90;;
51475;SDS011;37554;50.362;7.568;2023-02-11T08:28:59;20.88;;;14.23;;
51475;SDS011;37554;50.362;7.568;2023-02-11T08:31:27;21.52;;;15.85;;
51475;SDS011;37554;50.362;7.568;2023-02-11T08:34:04;16.45;;;13.85;;
51475;SDS011;37554;50.362;7.568;2023-02-11T08:36:31;18.25;;;14.30;;
51475;SDS011;37554;50.362;7.568;2023-02-11T08:38:59;19.23;;;15.10;;
51475;SDS011;37554;50.362;7.568;2023-02-11T08:41:29;20.00;;;15.05;;
51475;SDS011;37554;50.362;7.568;2023-02-11T08:43:56;20.27;;;15.73;;
51475;SDS011;37554;50.362;7.568;2023-02-11T08:46:23;18.15;;;14.20;;
51475;SDS011;37554;50.362;7.568;2023-02-11T08:48:49;21.45;;;15.10;;
51475;SDS011;37554;50.362;7.568;2023-02-11T08:51:16;18.15;;;14.57;;
51475;SDS011;37554;50.362;7.568;2023-02-11T08:53:45;16.83;;;14.50;;
51475;SDS011;37554;50.362;7.568;2023-02-11T08:56:12;16.67;;;13.55;;
51475;SDS011;37554;50.362;7.568;2023-02-11T08:58:39;18.27;;;15.15;;
51475;SDS011;37554;50.362;7.568;2023-02-11T09:01:09;18.80;;;14.82;;
51475;SDS011;37554;50.362;7.568;2023-02-11T09:03:39;16.60;;;14.50;;
51475;SDS011;37554;50.362;7.568;2023-02-11T09:06:05;16.42;;;13.43;;
51475;SDS011;37554;50.362;7.568;2023-02-11T09:08:36;19.10;;;13.90;;
51475;SDS011;37554;50.362;7.568;2023-02-11T09:11:03;18.73;;;14.20;;
51475;SDS011;37554;50.362;7.568;2023-02-11T09:13:30;18.08;;;13.35;;
51475;SDS011;37554;50.362;7.568;2023-02-11T09:15:56;18.23;;;13.45;;
51475;SDS011;37554;50.362;7.568;2023-02-11T09:18:23;16.25;;;12.48;;
51475;SDS011;37554;50.362;7.568;2023-02-11T09:20:48;18.42;;;13.32;;
51475;SDS011;37554;50.362;7.568;2023-02-11T09:23:14;16.42;;;12.35;;
51475;SDS011;37554;50.362;7.568;2023-02-11T09:25:40;15.90;;;11.77;;
51475;SDS011;37554;50.362;7.568;2023-02-11T09:28:06;16.85;;;13.15;;
51475;SDS011;37554;50.362;7.568;2023-02-11T09:30:33;18.40;;;13.43;;
51475;SDS011;37554;50.362;7.568;2023-02-11T09:33:00;15.73;;;12.77;;
51475;SDS011;37554;50.362;7.568;2023-02-11T09:35:25;16.10;;;12.20;;
51475;SDS011;37554;50.362;7.568;2023-02-11T09:37:51;16.92;;;12.88;;
51475;SDS011;37554;50.362;7.568;2023-02-11T09:40:17;15.38;;;12.18;;
51475;SDS011;37554;50.362;7.568;2023-02-11T09:42:45;14.25;;;11.85;;
51475;SDS011;37554;50.362;7.568;2023-02-11T09:45:19;17.77;;;13.38;;
51475;SDS011;37554;50.362;7.568;2023-02-11T09:47:59;15.73;;;11.95;;
51475;SDS011;37554;50.362;7.568;2023-02-11T09:55:51;14.13;;;11.35;;
51475;SDS011;37554;50.362;7.568;2023-02-11T10:00:55;14.57;;;11.07;;
51475;SDS011;37554;50.362;7.568;2023-02-11T10:03:32;16.55;;;12.25;;
51475;SDS011;37554;50.362;7.568;2023-02-11T10:06:09;16.50;;;13.10;;
51475;SDS011;37554;50.362;7.568;2023-02-11T10:09:00;15.40;;;11.90;;
51475;SDS011;37554;50.362;7.568;2023-02-11T10:20:00;14.18;;;11.90;;
51475;SDS011;37554;50.362;7.568;2023-02-11T10:22:32;14.30;;;11.82;;
51475;SDS011;37554;50.362;7.568;2023-02-11T10:25:05;18.48;;;12.45;;
51475;SDS011;37554;50.362;7.568;2023-02-11T10:27:46;14.80;;;11.80;;
51475;SDS011;37554;50.362;7.568;2023-02-11T10:30:56;13.90;;;12.00;;
51475;SDS011;37554;50.362;7.568;2023-02-11T10:35:36;13.75;;;11.45;;
51475;SDS011;37554;50.362;7.568;2023-02-11T10:38:02;14.98;;;11.95;;
51475;SDS011;37554;50.362;7.568;2023-02-11T10:40:29;15.30;;;11.85;;
51475;SDS011;37554;50.362;7.568;2023-02-11T10:42:59;14.27;;;11.35;;
51475;SDS011;37554;50.362;7.568;2023-02-11T10:45:50;14.50;;;11.68;;
51475;SDS011;37554;50.362;7.568;2023-02-11T10:53:38;12.73;;;10.85;;
51475;SDS011;37554;50.362;7.568;2023-02-11T10:56:05;13.73;;;10.70;;
51475;SDS011;37554;50.362;7.568;2023-02-11T10:58:44;15.43;;;11.40;;
51475;SDS011;37554;50.362;7.568;2023-02-11T11:01:18;14.05;;;11.35;;
51475;SDS011;37554;50.362;7.568;2023-02-11T11:03:45;15.48;;;11.32;;
51475;SDS011;37554;50.362;7.568;2023-02-11T11:06:13;12.88;;;10.77;;
51475;SDS011;37554;50.362;7.568;2023-02-11T11:08:41;15.25;;;11.15;;
51475;SDS011;37554;50.362;7.568;2023-02-11T11:11:13;13.80;;;10.57;;
51475;SDS011;37554;50.362;7.568;2023-02-11T11:13:53;12.95;;;10.77;;
51475;SDS011;37554;50.362;7.568;2023-02-11T11:21:39;13.80;;;10.68;;
51475;SDS011;37554;50.362;7.568;2023-02-11T11:24:16;14.88;;;10.50;;
51475;SDS011;37554;50.362;7.568;2023-02-11T11:26:52;12.25;;;10.60;;
51475;SDS011;37554;50.362;7.568;2023-02-11T11:34:59;11.95;;;9.82;;
51475;SDS011;37554;50.362;7.568;2023-02-11T11:37:28;12.63;;;9.82;;
51475;SDS011;37554;50.362;7.568;2023-02-11T11:45:38;11.70;;;9.68;;
51475;SDS011;37554;50.362;7.568;2023-02-11T11:51:13;10.35;;;8.70;;
51475;SDS011;37554;50.362;7.568;2023-02-11T11:56:13;11.73;;;9.43;;
51475;SDS011;37554;50.362;7.568;2023-02-11T11:58:42;11.35;;;8.82;;
51475;SDS011;37554;50.362;7.568;2023-02-11T12:01:25;12.35;;;9.70;;
51475;SDS011;37554;50.362;7.568;2023-02-11T12:04:12;11.95;;;8.88;;
51475;SDS011;37554;50.362;7.568;2023-02-11T12:12:31;11.05;;;8.93;;
51475;SDS011;37554;50.362;7.568;2023-02-11T12:18:00;11.35;;;8.82;;
51475;SDS011;37554;50.362;7.568;2023-02-11T12:21:02;10.75;;;8.82;;
51475;SDS011;37554;50.362;7.568;2023-02-11T12:26:11;10.65;;;8.68;;
51475;SDS011;37554;50.362;7.568;2023-02-11T12:42:37;10.02;;;8.05;;
51475;SDS011;37554;50.362;7.568;2023-02-11T12:45:43;9.15;;;8.15;;
51475;SDS011;37554;50.362;7.568;2023-02-11T12:51:25;11.02;;;8.02;;
51475;SDS011;37554;50.362;7.568;2023-02-11T12:54:16;12.38;;;9.15;;
51475;SDS011;37554;50.362;7.568;2023-02-11T13:08:02;9.07;;;7.70;;
51475;SDS011;37554;50.362;7.568;2023-02-11T13:10:36;10.13;;;7.72;;
51475;SDS011;37554;50.362;7.568;2023-02-11T13:18:44;8.90;;;7.07;;
51475;SDS011;37554;50.362;7.568;2023-02-11T13:21:32;14.25;;;11.30;;
51475;SDS011;37554;50.362;7.568;2023-02-11T13:24:23;18.73;;;12.05;;
51475;SDS011;37554;50.362;7.568;2023-02-11T13:32:13;19.58;;;13.48;;
51475;SDS011;37554;50.362;7.568;2023-02-11T13:37:12;18.60;;;15.02;;
51475;SDS011;37554;50.362;7.568;2023-02-11T13:45:16;17.98;;;14.50;;
51475;SDS011;37554;50.362;7.568;2023-02-11T13:47:59;14.77;;;11.98;;
51475;SDS011;37554;50.362;7.568;2023-02-11T13:50:28;16.50;;;11.73;;
51475;SDS011;37554;50.362;7.568;2023-02-11T13:53:01;14.18;;;11.23;;
51475;SDS011;37554;50.362;7.568;2023-02-11T13:55:28;14.35;;;10.38;;
51475;SDS011;37554;50.362;7.568;2023-02-11T14:04:04;12.75;;;10.07;;
51475;SDS011;37554;50.362;7.568;2023-02-11T14:12:15;10.27;;;9.00;;
51475;SDS011;37554;50.362;7.568;2023-02-11T14:14:57;11.23;;;8.45;;
51475;SDS011;37554;50.362;7.568;2023-02-11T14:17:27;10.77;;;8.60;;
51475;SDS011;37554;50.362;7.568;2023-02-11T14:19:54;11.07;;;8.52;;
51475;SDS011;37554;50.362;7.568;2023-02-11T14:22:22;9.77;;;8.38;;
51475;SDS011;37554;50.362;7.568;2023-02-11T14:24:59;10.07;;;8.32;;
51475;SDS011;37554;50.362;7.568;2023-02-11T14:27:27;10.30;;;8.10;;
51475;SDS011;37554;50.362;7.568;2023-02-11T14:41:28;8.52;;;7.28;;
51475;SDS011;37554;50.362;7.568;2023-02-11T14:44:03;10.45;;;7.95;;
51475;SDS011;37554;50.362;7.568;2023-02-11T14:46:30;9.85;;;8.50;;
51475;SDS011;37554;50.362;7.568;2023-02-11T14:48:57;11.30;;;8.13;;
51475;SDS011;37554;50.362;7.568;2023-02-11T14:51:27;12.07;;;7.93;;
51475;SDS011;37554;50.362;7.568;2023-02-11T14:54:23;9.95;;;6.32;;
51475;SDS011;37554;50.362;7.568;2023-02-11T14:59:51;8.40;;;5.55;;
51475;SDS011;37554;50.362;7.568;2023-02-11T15:02:23;7.97;;;6.07;;
51475;SDS011;37554;50.362;7.568;2023-02-11T15:04:53;9.60;;;6.35;;
51475;SDS011;37554;50.362;7.568;2023-02-11T15:07:19;8.73;;;7.05;;
51475;SDS011;37554;50.362;7.568;2023-02-11T15:09:47;9.80;;;7.40;;
51475;SDS011;37554;50.362;7.568;2023-02-11T15:12:17;11.90;;;7.60;;
51475;SDS011;37554;50.362;7.568;2023-02-11T15:14:49;8.80;;;7.20;;
51475;SDS011;37554;50.362;7.568;2023-02-11T15:17:20;9.02;;;7.30;;
51475;SDS011;37554;50.362;7.568;2023-02-11T15:19:49;10.93;;;7.55;;
51475;SDS011;37554;50.362;7.568;2023-02-11T15:22:18;11.98;;;8.02;;
51475;SDS011;37554;50.362;7.568;2023-02-11T15:25:17;11.68;;;8.00;;
51475;SDS011;37554;50.362;7.568;2023-02-11T15:27:48;12.07;;;8.15;;
51475;SDS011;37554;50.362;7.568;2023-02-11T15:30:33;12.95;;;8.30;;
51475;SDS011;37554;50.362;7.568;2023-02-11T15:33:00;10.90;;;8.55;;
51475;SDS011;37554;50.362;7.568;2023-02-11T15:35:34;9.95;;;8.63;;
51475;SDS011;37554;50.362;7.568;2023-02-11T15:38:04;10.63;;;8.43;;
51475;SDS011;37554;50.362;7.568;2023-02-11T15:40:32;12.27;;;8.63;;
51475;SDS011;37554;50.362;7.568;2023-02-11T15:43:00;12.65;;;8.95;;
51475;SDS011;37554;50.362;7.568;2023-02-11T15:45:37;10.90;;;8.20;;
51475;SDS011;37554;50.362;7.568;2023-02-11T15:48:40;10.13;;;8.60;;
51475;SDS011;37554;50.362;7.568;2023-02-11T15:51:16;12.30;;;8.73;;
51475;SDS011;37554;50.362;7.568;2023-02-11T15:53:56;11.25;;;9.18;;
51475;SDS011;37554;50.362;7.568;2023-02-11T15:56:42;9.50;;;8.32;;
51475;SDS011;37554;50.362;7.568;2023-02-11T15:59:19;11.07;;;9.23;;
51475;SDS011;37554;50.362;7.568;2023-02-11T16:01:51;11.75;;;9.25;;
51475;SDS011;37554;50.362;7.568;2023-02-11T16:04:19;11.38;;;9.35;;
51475;SDS011;37554;50.362;7.568;2023-02-11T16:06:47;11.25;;;9.23;;
51475;SDS011;37554;50.362;7.568;2023-02-11T16:19:43;12.65;;;9.50;;
51475;SDS011;37554;50.362;7.568;2023-02-11T16:22:14;13.77;;;9.73;;
51475;SDS011;37554;50.362;7.568;2023-02-11T16:24:44;11.73;;;10.35;;
51475;SDS011;37554;50.362;7.568;2023-02-11T16:29:48;11.85;;;9.63;;
51475;SDS011;37554;50.362;7.568;2023-02-11T16:32:22;11.77;;;9.43;;
51475;SDS011;37554;50.362;7.568;2023-02-11T16:34:53;12.02;;;9.77;;
51475;SDS011;37554;50.362;7.568;2023-02-11T16:37:21;11.50;;;10.00;;
51475;SDS011;37554;50.362;7.568;2023-02-11T16:39:48;12.45;;;9.63;;
51475;SDS011;37554;50.362;7.568;2023-02-11T16:42:14;11.85;;;9.02;;
51475;SDS011;37554;50.362;7.568;2023-02-11T16:44:39;13.57;;;10.38;;
51475;SDS011;37554;50.362;7.568;2023-02-11T16:47:06;13.43;;;10.13;;
51475;SDS011;37554;50.362;7.568;2023-02-11T16:49:41;13.85;;;10.15;;
51475;SDS011;37554;50.362;7.568;2023-02-11T16:52:08;13.63;;;10.13;;
51475;SDS011;37554;50.362;7.568;2023-02-11T16:54:38;13.57;;;9.95;;
51475;SDS011;37554;50.362;7.568;2023-02-11T16:57:13;12.18;;;9.75;;
51475;SDS011;37554;50.362;7.568;2023-02-11T16:59:41;11.88;;;9.10;;
51475;SDS011;37554;50.362;7.568;2023-02-11T17:02:26;12.57;;;10.23;;
51475;SDS011;37554;50.362;7.568;2023-02-11T17:04:55;13.40;;;10.60;;
51475;SDS011;37554;50.362;7.568;2023-02-11T17:07:23;11.60;;;9.65;;
51475;SDS011;37554;50.362;7.568;2023-02-11T17:09:49;13.07;;;10.18;;
51475;SDS011;37554;50.362;7.568;2023-02-11T17:12:16;12.75;;;10.52;;
51475;SDS011;37554;50.362;7.568;2023-02-11T17:14:42;11.85;;;9.60;;
51475;SDS011;37554;50.362;7.568;2023-02-11T17:17:08;12.65;;;10.38;;
51475;SDS011;37554;50.362;7.568;2023-02-11T17:19:35;12.65;;;9.48;;
51475;SDS011;37554;50.362;7.568;2023-02-11T17:22:01;11.73;;;10.32;;
51475;SDS011;37554;50.362;7.568;2023-02-11T17:24:26;15.27;;;10.95;;
51475;SDS011;37554;50.362;7.568;2023-02-11T17:26:52;15.40;;;11.15;;
51475;SDS011;37554;50.362;7.568;2023-02-11T17:29:20;11.77;;;10.15;;
51475;SDS011;37554;50.362;7.568;2023-02-11T17:31:47;13.25;;;10.90;;
51475;SDS011;37554;50.362;7.568;2023-02-11T17:34:13;14.45;;;11.10;;
51475;SDS011;37554;50.362;7.568;2023-02-11T17:36:40;13.48;;;10.60;;
51475;SDS011;37554;50.362;7.568;2023-02-11T17:39:06;14.48;;;11.00;;
51475;SDS011;37554;50.362;7.568;2023-02-11T17:41:33;14.13;;;11.48;;
51475;SDS011;37554;50.362;7.568;2023-02-11T17:44:00;14.77;;;11.05;;
51475;SDS011;37554;50.362;7.568;2023-02-11T17:46:26;14.85;;;11.55;;
51475;SDS011;37554;50.362;7.568;2023-02-11T17:48:56;15.93;;;11.20;;